Flight Track Log - Related Links

Times and Time Zones

All times are in EST time to prevent confusion due to time zone crossing. See the UCA3597 flight status page for this flight to view local times or setup timezone preferences in your user account.

Time Position Orientation Groundspeed Altitude Reporting Facility
EST Latitude Longitude Course Direction KTS MPH feet Rate Location/Type
Wed 07:25:27 PM 42.1569 -76.0217 218° Southwest 172 198 4,500  Level New York Center
Wed 07:26:27 PM 42.1178 -76.0631 218° Southwest 185 213 6,100 1,600 Climbing New York Center
Wed 07:27:27 PM 42.0786 -76.1019 216° Southwest 185 213 7,700 1,550 Climbing New York Center
Wed 07:28:27 PM 42.0331 -76.1431 214° Southwest 190 219 9,200 1,600 Climbing New York Center
Wed 07:29:27 PM 41.9853 -76.1864 214° Southwest 200 230 10,900 1,700 Climbing New York Center
Wed 07:30:27 PM 41.9436 -76.2278 216° Southwest 200 230 12,600 1,587 Climbing New York Center
Wed 07:31:28 PM 41.9003 -76.2658 213° Southwest 194 223 14,100 1,450 Climbing New York Center
Wed 07:32:27 PM 41.8614 -76.2989 212° Southwest 194 223 15,500 958 Climbing New York Center
Wed 07:33:27 PM 41.8175 -76.3425 217° Southwest 194 223 16,000 250 Climbing New York Center
Wed 07:34:27 PM 41.7611 -76.3936 214° Southwest 214 246 16,000  Level New York Center
Wed 07:35:27 PM 41.7089 -76.4392 213° Southwest 227 261 16,000  Level New York Center
Wed 07:36:27 PM 41.6567 -76.4875 215° Southwest 227 261 16,000  Level New York Center
Wed 07:37:27 PM 41.6086 -76.5333 215° Southwest 227 261 16,000  Level New York Center
Wed 07:38:27 PM 41.5522 -76.5811 212° Southwest 227 261 16,000  Level New York Center
Wed 07:39:27 PM 41.4997 -76.6292 214° Southwest 227 261 16,000  Level New York Center
Wed 07:40:27 PM 41.4475 -76.6772 215° Southwest 227 261 16,000  Level New York Center
Wed 07:41:27 PM 41.3950 -76.7253 214° Southwest 227 261 16,000  Level New York Center
Wed 07:42:27 PM 41.3447 -76.7706 214° Southwest 227 261 16,000  Level New York Center
Wed 07:43:27 PM 41.2833 -76.7900 193° South 227 261 16,000  Level New York Center
Wed 07:44:27 PM 41.2183 -76.8006 187° South 227 261 16,000  Level New York Center
Wed 07:45:27 PM 41.1531 -76.8142 189° South 238 274 16,000  Level New York Center
Wed 07:46:27 PM 41.0897 -76.8278 189° South 238 274 16,000  Level New York Center
Wed 07:47:27 PM 41.0267 -76.8386 187° South 238 274 16,000  Level New York Center
Wed 07:48:27 PM 40.9614 -76.8522 189° South 238 274 16,000  Level New York Center
Wed 07:49:27 PM 40.8983 -76.8631 187° South 238 274 16,000  Level New York Center
Wed 07:50:27 PM 40.8436 -76.8744 189° South 233 268 16,000  Level New York Center
Wed 07:51:27 PM 40.7719 -76.8900 189° South 239 275 16,000  Level New York Center
Wed 07:52:27 PM 40.7211 -76.9075 195° South 239 275 16,000  Level New York Center
Wed 07:53:27 PM 40.6511 -76.9286 193° South 233 268 16,000  Level New York Center
Wed 07:54:27 PM 40.5961 -76.9456 193° South 227 261 16,000  Level New York Center
Wed 07:55:27 PM 40.5261 -76.9664 193° South 227 261 16,000  Level New York Center
Wed 07:56:27 PM 40.4708 -76.9861 195° South 232 267 16,000  Level New York Center
Wed 07:57:27 PM 40.4031 -77.0072 193° South 232 267 16,000  Level New York Center
Wed 07:58:27 PM 40.3375 -77.0258 192° South 237 273 16,000  Level New York Center
Wed 07:59:27 PM 40.2739 -77.0472 194° South 237 273 16,000 -450 Level New York Center
Wed 08:00:27 PM 40.2106 -77.0633 191° South 242 278 15,100 -950 Descending New York Center
Wed 08:01:27 PM 40.1486 -77.0878 197° South 242 278 14,100 -1,000 Descending New York Center
Wed 08:02:27 PM 40.0872 -77.1039 191° South 230 265 13,100 -1,010 Descending New York Center
Wed 08:04:55 PM 39.9500 -77.1500 194° South 211 243 10,600 -980 Descending Potomac TRACON
Wed 08:05:49 PM 39.9000 -77.1667 194° South 208 239 9,800 -1,000 Descending Potomac TRACON
Wed 08:06:49 PM 39.8333 -77.1833 191° South 207 238 8,700 -900 Descending Potomac TRACON
Wed 08:07:49 PM 39.8000 -77.2167 218° Southwest 204 235 8,000 -350 Descending Potomac TRACON
Wed 08:08:49 PM 39.7500 -77.2667 218° Southwest 204 235 8,000 -381 Level Potomac TRACON
Wed 08:09:55 PM 39.6833 -77.3000 201° Southwest 209 241 7,200 -857 Descending Potomac TRACON
Wed 08:10:55 PM 39.6333 -77.3333 207° Southwest 201 231 6,200 -632 Descending Potomac TRACON
Wed 08:11:49 PM 39.6000 -77.3500 201° Southwest 181 208 6,000 -550 Descending Potomac TRACON
Wed 08:12:44 PM 39.5500 -77.3833 207° Southwest 206 237 5,200 -939 Descending Potomac TRACON
Wed 08:13:44 PM 39.5000 -77.4167 207° Southwest 209 241 4,200 -600 Descending Potomac TRACON
Wed 08:14:44 PM 39.4500 -77.4333 194° South 202 232 4,000 -100 Descending Potomac TRACON
Wed 08:15:44 PM 39.3833 -77.4333 180° South 198 228 4,000 -95 Level Potomac TRACON
Wed 08:16:50 PM 39.3333 -77.4333 180° South 196 226 3,800 -300 Descending Potomac TRACON
Wed 08:17:44 PM 39.2833 -77.4333 180° South 199 229 3,400 -400 Descending Potomac TRACON
Wed 08:18:50 PM 39.2167 -77.4333 180° South 164 189 3,000 -381 Descending Potomac TRACON
Wed 08:19:50 PM 39.1833 -77.4333 180° South 166 191 2,600 -474 Descending Potomac TRACON
Wed 08:20:44 PM 39.1333 -77.4333 180° South 160 184 2,100 -300 Descending Potomac TRACON
Wed 08:21:50 PM 39.0833 -77.4333 180° South 158 182 2,000 -99 Descending Potomac TRACON
Wed 08:22:45 PM 39.0500 -77.4333 180° South 142 163 1,900 -209 Descending Potomac TRACON
Wed 08:23:45 PM 39.0167 -77.4333 180° South 105 121 1,600 -400 Descending Potomac TRACON
Wed 08:24:45 PM 39.0000 -77.4333 180° South 98 113 1,100 -500 Descending Potomac TRACON
Wed 08:25:45 PM 38.9667 -77.4333 180° South 101 116 600 -500 Descending Potomac TRACON
Wed 08:27:00 PM 38.9474 -77.4599 180° South  Level Estimated
Wed 08:34:00 PM 38.9474 -77.4599 339° North  Level Estimated
Wed 08:35:00 PM 38.9474 -77.4599 349° North  Level Estimated

Login

Don't have an account? Register now (free) for customized features, flight alerts, and more!